Time;durP1;ratioP1;P1;durP2;ratioP2;P2;SDS_P1;SDS_P2;PMS_P1;PMS_P2;Temp;Humidity;BMP_temperature;BMP_pressure;BME280_temperature;BME280_humidity;BME280_pressure;Samples;Min_cycle;Max_cycle;Signal;HPM_P1;HPM_P2
2023/04/06 00:01:59;;;;;;;13.63;8.90;;;;;;;1.23;75.28;98401.00;5091472;28;20598;-80
2023/04/06 00:04:26;;;;;;;12.80;8.60;;;;;;;1.19;75.52;98400.25;5091837;28;20302;-80
2023/04/06 00:06:53;;;;;;;12.40;8.83;;;;;;;1.19;76.18;98397.63;5091514;28;20333;-79
2023/04/06 00:09:19;;;;;;;10.83;8.27;;;;;;;1.11;76.09;98391.78;5090533;28;20273;-80
2023/04/06 00:11:47;;;;;;;11.60;8.67;;;;;;;1.07;76.32;98400.56;5091487;28;20215;-80
2023/04/06 00:14:17;;;;;;;13.13;8.97;;;;;;;0.97;77.15;98396.50;5090960;28;20308;-80
2023/04/06 00:16:43;;;;;;;11.10;8.70;;;;;;;0.88;77.69;98404.56;5091692;28;20251;-80
2023/04/06 00:19:10;;;;;;;12.67;8.87;;;;;;;0.79;77.77;98404.81;5090826;28;20300;-80
2023/04/06 00:21:36;;;;;;;11.80;9.00;;;;;;;0.82;77.15;98404.75;5091373;28;20205;-80
2023/04/06 00:24:04;;;;;;;12.87;8.13;;;;;;;0.69;77.49;98398.13;5091372;28;20202;-80
2023/04/06 00:26:31;;;;;;;14.30;9.37;;;;;;;0.57;78.75;98392.41;5091066;28;20214;-80
2023/04/06 00:28:59;;;;;;;11.27;8.70;;;;;;;0.52;79.45;98404.66;5091174;28;20745;-79
2023/04/06 00:31:25;;;;;;;11.47;8.70;;;;;;;0.42;80.56;98400.56;5091217;28;20229;-79
2023/04/06 00:33:52;;;;;;;12.50;8.53;;;;;;;0.28;81.47;98400.94;5098516;28;20221;-80
2023/04/06 00:36:19;;;;;;;13.90;9.63;;;;;;;0.16;82.30;98393.44;5114930;28;20209;-79
2023/04/06 00:38:45;;;;;;;12.60;9.50;;;;;;;0.08;83.92;98395.34;5114633;28;20186;-79
2023/04/06 00:41:12;;;;;;;14.33;9.60;;;;;;;0.01;84.62;98401.59;5101881;28;20238;-79
2023/04/06 00:43:39;;;;;;;12.50;8.93;;;;;;;0.01;87.00;98401.59;5091170;28;20783;-80
2023/04/06 00:46:07;;;;;;;10.47;8.40;;;;;;;0.02;87.36;98398.09;5091328;28;20215;-80
2023/04/06 00:48:34;;;;;;;11.63;9.13;;;;;;;0.13;86.46;98398.69;5091327;28;20237;-80
2023/04/06 00:51:01;;;;;;;12.87;8.43;;;;;;;0.10;85.82;98391.00;5090676;28;20209;-80
2023/04/06 00:53:27;;;;;;;11.87;8.87;;;;;;;0.03;86.66;98392.03;5091178;28;20297;-80
2023/04/06 00:55:54;;;;;;;15.73;11.37;;;;;;;-0.05;87.97;98391.34;5091708;28;20271;-80
2023/04/06 00:58:21;;;;;;;13.23;9.63;;;;;;;-0.08;89.28;98381.03;5091105;28;20631;-83
2023/04/06 01:00:48;;;;;;;12.07;8.83;;;;;;;-0.08;89.40;98387.97;5089781;28;20282;-79
2023/04/06 01:03:16;;;;;;;12.53;8.87;;;;;;;-0.15;89.89;98383.78;5091197;28;20312;-79
2023/04/06 01:05:43;;;;;;;11.40;9.17;;;;;;;-0.12;89.44;98388.94;5091300;28;20308;-80
2023/04/06 01:08:10;;;;;;;11.73;8.27;;;;;;;-0.16;89.63;98385.53;5091178;28;20289;-80
2023/04/06 01:10:37;;;;;;;12.60;8.87;;;;;;;-0.19;91.06;98389.09;5091366;28;20220;-78
2023/04/06 01:13:03;;;;;;;10.93;8.60;;;;;;;-0.23;91.06;98379.66;5092399;28;20291;-78
2023/04/06 01:15:30;;;;;;;11.63;8.87;;;;;;;-0.23;91.55;98380.53;5092443;28;20725;-78
2023/04/06 01:17:57;;;;;;;12.57;9.03;;;;;;;-0.26;92.06;98374.56;5091686;28;20232;-79
2023/04/06 01:20:26;;;;;;;11.70;8.37;;;;;;;-0.22;91.74;98370.97;5090127;28;20232;-79
2023/04/06 01:22:54;;;;;;;12.20;9.27;;;;;;;-0.27;91.86;98378.88;5090706;28;20263;-79
2023/04/06 01:25:21;;;;;;;12.23;9.03;;;;;;;-0.33;92.43;98370.41;5090854;28;20220;-78
2023/04/06 01:27:47;;;;;;;11.27;8.93;;;;;;;-0.31;92.56;98379.00;5094173;28;20235;-79
2023/04/06 01:30:14;;;;;;;12.67;9.37;;;;;;;-0.34;92.47;98366.06;5093354;28;20234;-79
2023/04/06 01:32:41;;;;;;;10.90;8.93;;;;;;;-0.37;93.01;98372.19;5094351;28;20288;-79
2023/04/06 01:35:08;;;;;;;12.97;9.10;;;;;;;-0.42;92.99;98374.03;5094163;28;20229;-79
2023/04/06 01:37:35;;;;;;;12.90;9.50;;;;;;;-0.44;93.13;98375.81;5094040;28;20229;-79
2023/04/06 01:40:03;;;;;;;11.50;9.03;;;;;;;-0.42;93.15;98368.84;5093251;28;20208;-79
2023/04/06 01:42:30;;;;;;;13.97;10.07;;;;;;;-0.54;94.26;98363.94;5094013;28;20255;-79
2023/04/06 01:44:56;;;;;;;12.63;8.77;;;;;;;-0.56;95.71;98372.63;5094247;28;20212;-80
2023/04/06 01:47:23;;;;;;;12.70;9.13;;;;;;;-0.59;95.95;98364.91;5094005;28;20269;-80
2023/04/06 01:49:49;;;;;;;12.97;9.00;;;;;;;-0.58;96.01;98358.81;5093045;28;20319;-79
2023/04/06 01:52:16;;;;;;;12.07;8.97;;;;;;;-0.65;96.43;98360.72;5093602;28;20209;-80
2023/04/06 01:54:43;;;;;;;11.97;9.03;;;;;;;-0.65;97.27;98365.03;5093933;28;20209;-80
2023/04/06 01:57:11;;;;;;;13.00;8.87;;;;;;;-0.69;97.11;98358.22;5093547;28;20324;-80
2023/04/06 01:59:38;;;;;;;13.27;8.57;;;;;;;-0.73;98.13;98353.97;5093131;28;20205;-80
2023/04/06 02:02:04;;;;;;;12.13;8.80;;;;;;;-0.69;98.06;98358.22;5093872;28;20300;-79
2023/04/06 02:04:31;;;;;;;12.53;9.00;;;;;;;-0.68;98.13;98354.72;5093718;28;20284;-79
2023/04/06 02:06:58;;;;;;;15.60;9.80;;;;;;;-0.68;97.49;98355.56;5107888;22;20237;-78
2023/04/06 02:09:24;;;;;;;13.17;8.47;;;;;;;-0.72;98.12;98358.28;5092459;28;20325;-78
2023/04/06 02:11:51;;;;;;;11.23;9.30;;;;;;;-0.80;97.97;98357.59;5093144;28;20208;-78
2023/04/06 02:14:19;;;;;;;11.63;8.20;;;;;;;-0.74;98.10;98355.69;5093112;28;20679;-78
2023/04/06 02:16:45;;;;;;;13.23;8.63;;;;;;;-0.71;98.96;98359.97;5093102;28;20306;-76
2023/04/06 02:19:12;;;;;;;12.17;8.90;;;;;;;-0.70;99.34;98356.47;5092302;28;20206;-77
2023/04/06 02:21:38;;;;;;;12.93;8.73;;;;;;;-0.73;98.28;98362.63;5093066;28;20205;-76
2023/04/06 02:24:06;;;;;;;11.43;8.37;;;;;;;-0.77;98.33;98360.09;5092883;28;20301;-77
2023/04/06 02:26:32;;;;;;;11.83;8.43;;;;;;;-0.80;98.05;98349.81;5093404;28;20211;-77
2023/04/06 02:28:59;;;;;;;12.73;9.07;;;;;;;-0.82;98.13;98348.97;5092709;28;20238;-77
2023/04/06 02:31:27;;;;;;;11.00;9.07;;;;;;;-0.85;99.08;98346.44;5092257;28;20230;-77
2023/04/06 02:33:53;;;;;;;12.10;9.17;;;;;;;-0.83;99.12;98352.44;5092642;28;20301;-77
2023/04/06 02:36:20;;;;;;;9.77;8.13;;;;;;;-0.86;99.79;98347.34;5092373;28;20216;-78
2023/04/06 02:38:47;;;;;;;11.77;9.33;;;;;;;-0.86;99.54;98349.94;5092876;28;20232;-77
2023/04/06 02:41:13;;;;;;;11.33;9.07;;;;;;;-0.88;99.65;98346.50;5092183;28;20215;-77
2023/04/06 02:43:40;;;;;;;10.83;8.33;;;;;;;-0.92;99.42;98343.09;5092539;28;20211;-77
2023/04/06 02:46:06;;;;;;;12.03;9.17;;;;;;;-0.92;100.00;98344.88;5092643;28;20214;-77
2023/04/06 02:48:36;;;;;;;11.33;8.53;;;;;;;-0.82;100.00;98346.38;5092547;28;20325;-76
2023/04/06 02:51:02;;;;;;;11.70;8.90;;;;;;;-0.85;100.00;98344.72;5091616;28;20270;-76
2023/04/06 02:53:29;;;;;;;11.80;8.73;;;;;;;-0.88;100.00;98344.75;5092369;28;20254;-78
2023/04/06 02:55:56;;;;;;;13.10;9.17;;;;;;;-0.90;100.00;98341.34;5092419;28;20208;-77
2023/04/06 02:58:22;;;;;;;11.83;8.53;;;;;;;-0.92;100.00;98339.69;5092314;28;20234;-77
2023/04/06 03:00:49;;;;;;;13.30;9.20;;;;;;;-0.94;100.00;98331.91;5091468;28;20300;-77
2023/04/06 03:03:16;;;;;;;12.90;9.67;;;;;;;-0.95;100.00;98334.53;5092157;28;20276;-77
2023/04/06 03:05:43;;;;;;;12.33;8.90;;;;;;;-0.95;100.00;98339.72;5092252;28;20207;-77
2023/04/06 03:08:10;;;;;;;12.50;8.77;;;;;;;-0.94;100.00;98341.44;5092084;28;20324;-77
2023/04/06 03:10:37;;;;;;;14.13;9.50;;;;;;;-0.97;100.00;98341.50;5091255;28;20238;-77
2023/04/06 03:13:03;;;;;;;12.53;9.10;;;;;;;-0.92;100.00;98344.88;5092143;28;20218;-77
2023/04/06 03:15:30;;;;;;;13.43;9.87;;;;;;;-0.98;100.00;98338.03;5091779;28;20283;-78
2023/04/06 03:17:56;;;;;;;14.03;9.60;;;;;;;-0.98;100.00;98329.44;5092065;28;20328;-77
2023/04/06 03:20:23;;;;;;;14.80;10.30;;;;;;;-0.97;100.00;98333.72;5091419;28;20292;-77
2023/04/06 03:22:51;;;;;;;14.57;9.77;;;;;;;-0.97;100.00;98331.13;5092016;28;20222;-78
2023/04/06 03:25:17;;;;;;;15.77;10.03;;;;;;;-0.95;100.00;98334.53;5091803;28;20295;-77
2023/04/06 03:27:44;;;;;;;13.10;9.37;;;;;;;-0.94;100.00;98350.09;5092146;28;20319;-77
2023/04/06 03:30:11;;;;;;;13.77;10.00;;;;;;;-0.99;100.00;98335.50;5090768;28;20229;-77
2023/04/06 03:32:38;;;;;;;14.73;10.03;;;;;;;-1.03;100.00;98331.25;5091708;28;20688;-77
2023/04/06 03:35:05;;;;;;;14.17;9.73;;;;;;;-1.05;100.00;98338.22;5091740;28;20235;-78
2023/04/06 03:37:32;;;;;;;14.23;9.80;;;;;;;-1.04;100.00;98339.94;5091521;28;20316;-77
2023/04/06 03:40:00;;;;;;;18.50;10.87;;;;;;;-1.07;100.00;98334.78;5090867;28;20215;-77
2023/04/06 03:42:26;;;;;;;15.00;10.70;;;;;;;-1.06;100.00;98341.72;5091542;28;20219;-77
2023/04/06 03:44:53;;;;;;;15.13;10.50;;;;;;;-1.11;100.00;98344.38;5091307;28;20454;-78
2023/04/06 03:47:19;;;;;;;19.53;10.73;;;;;;;-1.17;100.00;98339.31;5091227;28;20713;-78
2023/04/06 03:49:46;;;;;;;16.70;11.20;;;;;;;-1.17;100.00;98347.09;5089883;28;20323;-76
2023/04/06 03:52:13;;;;;;;16.47;11.83;;;;;;;-1.18;100.00;98349.72;5091376;28;20269;-77
2023/04/06 03:54:39;;;;;;;18.93;11.90;;;;;;;-1.14;100.00;98348.78;5091361;28;20206;-77
2023/04/06 03:57:07;;;;;;;17.37;11.63;;;;;;;-1.13;100.00;98355.66;5091086;28;20594;-77
2023/04/06 03:59:34;;;;;;;15.50;11.70;;;;;;;-1.11;100.00;98356.50;5090275;28;20215;-77
2023/04/06 04:02:00;;;;;;;14.00;10.33;;;;;;;-1.21;100.00;98354.97;5091332;28;20207;-77
2023/04/06 04:04:27;;;;;;;14.70;9.57;;;;;;;-1.23;100.00;98365.34;5091160;28;20203;-77
2023/04/06 04:06:53;;;;;;;12.83;9.67;;;;;;;-1.29;100.00;98360.28;5091195;28;20217;-77
2023/04/06 04:09:20;;;;;;;12.27;9.53;;;;;;;-1.37;100.00;98361.31;5090572;28;20250;-78
2023/04/06 04:11:47;;;;;;;12.97;9.77;;;;;;;-1.37;100.00;98361.31;5091245;28;20207;-76
2023/04/06 04:14:15;;;;;;;14.03;9.10;;;;;;;-1.39;100.00;98358.78;5091284;28;20665;-79
2023/04/06 04:16:41;;;;;;;15.77;10.37;;;;;;;-1.41;100.00;98365.69;5091172;28;20294;-77
2023/04/06 04:19:08;;;;;;;15.33;10.23;;;;;;;-1.31;100.00;98369.84;5090414;28;20314;-77
2023/04/06 04:21:34;;;;;;;13.80;10.20;;;;;;;-1.35;100.00;98373.38;5091379;28;20294;-77
2023/04/06 04:24:01;;;;;;;12.53;10.20;;;;;;;-1.37;100.00;98371.69;5091151;28;20282;-77
2023/04/06 04:26:28;;;;;;;15.10;10.40;;;;;;;-1.41;100.00;98370.88;5091075;28;20628;-77
2023/04/06 04:28:54;;;;;;;17.80;11.33;;;;;;;-1.40;100.00;98372.63;5091129;28;20226;-77
2023/04/06 04:31:22;;;;;;;14.87;10.33;;;;;;;-1.42;100.00;98368.34;5090251;28;20228;-77
2023/04/06 04:33:49;;;;;;;15.37;11.33;;;;;;;-1.40;100.00;98367.44;5091196;28;20249;-77
2023/04/06 04:36:15;;;;;;;16.83;10.97;;;;;;;-1.40;100.00;98374.34;5090889;28;20207;-77
2023/04/06 04:38:42;;;;;;;15.07;11.00;;;;;;;-1.42;100.00;98379.56;5091050;28;20240;-77
2023/04/06 04:41:08;;;;;;;15.30;10.53;;;;;;;-1.47;100.00;98370.16;5090205;28;20200;-77
2023/04/06 04:43:35;;;;;;;18.10;11.17;;;;;;;-1.51;100.00;98374.53;5091343;28;20209;-76
2023/04/06 04:46:03;;;;;;;14.97;10.33;;;;;;;-1.52;100.00;98380.63;5091256;28;20211;-77
2023/04/06 04:48:31;;;;;;;16.53;10.80;;;;;;;-1.58;100.00;98372.09;5090893;28;20236;-77
2023/04/06 04:50:58;;;;;;;14.93;10.97;;;;;;;-1.62;100.00;98375.59;5090260;28;20909;-77
2023/04/06 04:53:24;;;;;;;17.03;11.63;;;;;;;-1.55;100.00;98377.19;5090979;28;20207;-78
2023/04/06 04:55:51;;;;;;;15.83;11.57;;;;;;;-1.48;100.00;98373.63;5091213;28;20239;-77
2023/04/06 04:58:19;;;;;;;18.03;11.83;;;;;;;-1.44;100.00;98367.50;5091166;28;20667;-77
2023/04/06 05:00:46;;;;;;;21.07;12.00;;;;;;;-1.37;100.00;98371.69;5092679;28;20203;-77
2023/04/06 05:03:19;;;;;;;18.10;12.37;;;;;;;-1.29;100.00;98378.44;5094623;28;20738;-77
2023/04/06 05:05:47;;;;;;;20.17;13.40;;;;;;;-1.19;100.00;98366.16;5094634;28;20216;-77
2023/04/06 05:08:13;;;;;;;16.43;12.03;;;;;;;-1.12;100.00;98378.13;5094249;28;20621;-77
2023/04/06 05:10:40;;;;;;;19.87;13.10;;;;;;;-1.11;100.00;98369.47;5093858;28;20322;-78
2023/04/06 05:13:07;;;;;;;17.93;12.97;;;;;;;-1.06;100.00;98381.44;5094469;28;20299;-77
2023/04/06 05:15:34;;;;;;;18.57;12.17;;;;;;;-1.07;100.00;98376.28;5094235;28;20211;-78
2023/04/06 05:18:01;;;;;;;17.87;11.90;;;;;;;-1.07;100.00;98382.34;5094065;28;20305;-78
2023/04/06 05:20:28;;;;;;;20.27;12.87;;;;;;;-1.01;100.00;98381.34;5093324;28;20577;-78
2023/04/06 05:22:56;;;;;;;21.33;13.10;;;;;;;-1.03;100.00;98386.59;5094042;28;20204;-77
2023/04/06 05:25:23;;;;;;;18.10;12.77;;;;;;;-0.98;100.00;98389.94;5094221;28;20298;-77
2023/04/06 05:27:50;;;;;;;16.30;12.27;;;;;;;-0.96;100.00;98395.97;5094010;28;20228;-77
2023/04/06 05:30:17;;;;;;;16.60;12.63;;;;;;;-0.92;100.00;98396.75;5093225;28;20235;-78
2023/04/06 05:32:44;;;;;;;20.53;13.07;;;;;;;-0.90;100.00;98406.22;5093907;28;20339;-79
2023/04/06 05:35:11;;;;;;;19.20;12.60;;;;;;;-0.83;100.00;98393.97;5093615;28;20230;-78
2023/04/06 05:37:38;;;;;;;18.43;12.27;;;;;;;-0.73;100.00;98398.09;5093970;28;20619;-77
2023/04/06 05:40:08;;;;;;;15.80;11.13;;;;;;;-0.65;100.00;98403.97;5093131;28;20286;-78
2023/04/06 05:42:37;;;;;;;17.73;11.20;;;;;;;-0.56;100.00;98401.19;5093875;28;20220;-77
2023/04/06 05:45:05;;;;;;;17.53;11.90;;;;;;;-0.53;100.00;98406.31;5093676;28;20236;-77
2023/04/06 05:47:32;;;;;;;16.97;11.80;;;;;;;-0.40;100.00;98407.75;5093572;28;20721;-77
2023/04/06 05:49:58;;;;;;;15.00;10.73;;;;;;;-0.31;100.00;98397.16;5092513;28;20240;-77
2023/04/06 05:52:25;;;;;;;16.80;11.63;;;;;;;-0.23;100.00;98406.50;5093635;28;20214;-77
2023/04/06 05:54:51;;;;;;;14.40;11.13;;;;;;;-0.12;100.00;98399.31;5093548;28;20298;-77
2023/04/06 05:57:19;;;;;;;14.40;10.27;;;;;;;-0.03;100.00;98399.97;5093847;28;20254;-77
2023/04/06 05:59:46;;;;;;;15.87;10.73;;;;;;;0.10;100.00;98396.19;5092687;28;20232;-77
2023/04/06 06:02:13;;;;;;;15.27;11.23;;;;;;;0.25;100.00;98400.16;5093161;28;20213;-77
2023/04/06 06:04:40;;;;;;;14.50;10.73;;;;;;;0.30;100.00;98398.28;5093151;28;20287;-77
2023/04/06 06:07:06;;;;;;;14.97;10.53;;;;;;;0.42;100.00;98393.66;5093381;28;20321;-78
2023/04/06 06:09:33;;;;;;;16.17;11.43;;;;;;;0.60;100.00;98398.38;5092639;28;20298;-78
2023/04/06 06:12:01;;;;;;;15.03;10.00;;;;;;;0.80;99.78;98395.28;5092071;28;20234;-78
2023/04/06 06:14:29;;;;;;;18.80;10.43;;;;;;;0.94;98.35;98396.59;5092262;28;20228;-77
2023/04/06 06:16:56;;;;;;;14.10;10.60;;;;;;;1.06;97.59;98393.63;5092531;28;20689;-84
2023/04/06 06:19:22;;;;;;;16.83;10.03;;;;;;;1.26;95.93;98391.34;5092041;28;20245;-81
2023/04/06 06:21:49;;;;;;;15.53;10.97;;;;;;;1.32;95.47;98391.19;5092389;28;20232;-81
2023/04/06 06:24:15;;;;;;;13.80;10.90;;;;;;;1.44;94.95;98389.97;5091208;28;20208;-79
2023/04/06 06:26:42;;;;;;;14.37;10.17;;;;;;;1.57;94.88;98386.97;5090064;28;20213;-80
2023/04/06 06:29:09;;;;;;;18.27;11.10;;;;;;;1.56;94.98;98393.06;5090486;28;20297;-78
2023/04/06 06:31:37;;;;;;;17.40;11.47;;;;;;;1.72;94.28;98390.88;5092187;28;20263;-80
2023/04/06 06:34:04;;;;;;;16.23;10.60;;;;;;;1.74;92.93;98389.91;5090875;28;20218;-78
2023/04/06 06:36:31;;;;;;;15.67;10.33;;;;;;;1.84;93.04;98395.72;5089887;28;20308;-80
2023/04/06 06:38:58;;;;;;;18.80;11.13;;;;;;;1.88;92.62;98390.34;5090442;28;20236;-80
2023/04/06 06:41:24;;;;;;;15.03;11.07;;;;;;;2.04;91.66;98388.97;5091749;28;20228;-80
2023/04/06 06:43:51;;;;;;;17.47;10.60;;;;;;;2.12;90.87;98386.97;5091746;28;20206;-80
2023/04/06 06:46:18;;;;;;;13.80;10.10;;;;;;;2.15;90.24;98391.25;5089610;28;20739;-80
2023/04/06 06:48:46;;;;;;;14.73;10.90;;;;;;;2.30;90.55;98396.81;5089338;28;20785;-81
2023/04/06 06:51:12;;;;;;;14.23;10.57;;;;;;;2.49;88.91;98392.69;5091529;28;20266;-81
2023/04/06 06:53:39;;;;;;;17.97;11.60;;;;;;;2.66;87.61;98390.38;5092603;28;20244;-81
2023/04/06 06:56:06;;;;;;;15.23;11.33;;;;;;;2.85;87.17;98386.22;5089113;28;20249;-76
2023/04/06 06:58:33;;;;;;;17.47;11.47;;;;;;;2.99;86.34;98389.22;5088866;28;20324;-80
2023/04/06 07:00:59;;;;;;;18.03;12.20;;;;;;;3.26;85.03;98395.22;5090626;28;20297;-80
2023/04/06 07:03:26;;;;;;;13.57;11.00;;;;;;;3.36;83.04;98384.38;5088978;28;20245;-79
2023/04/06 07:05:54;;;;;;;16.87;11.47;;;;;;;3.40;82.08;98380.75;5090927;28;20677;-80
2023/04/06 07:08:22;;;;;;;17.77;11.47;;;;;;;3.55;81.54;98377.53;5091357;28;20609;-80
2023/04/06 07:10:50;;;;;;;17.40;11.23;;;;;;;3.69;79.79;98367.44;5091316;28;20253;-83
2023/04/06 07:13:20;;;;;;;14.83;11.83;;;;;;;3.72;78.95;98374.31;5092019;28;20301;-84
2023/04/06 07:15:47;;;;;;;13.27;10.93;;;;;;;3.81;78.13;98377.44;5091179;28;20748;-82
2023/04/06 07:18:13;;;;;;;15.13;11.47;;;;;;;3.98;77.41;98372.38;5091970;28;20323;-83
2023/04/06 07:20:40;;;;;;;14.20;10.77;;;;;;;4.09;76.29;98372.81;5090958;28;20200;-83
2023/04/06 07:23:08;;;;;;;13.90;10.53;;;;;;;4.16;76.39;98376.03;5091822;28;20203;-82
2023/04/06 07:25:35;;;;;;;16.20;11.30;;;;;;;4.25;75.13;98368.69;5091551;28;20207;-82
2023/04/06 07:28:02;;;;;;;15.60;10.70;;;;;;;4.27;73.28;98372.06;5091841;28;20314;-82
2023/04/06 07:30:29;;;;;;;14.73;11.30;;;;;;;4.39;75.24;98373.34;5091143;28;20313;-82
2023/04/06 07:32:56;;;;;;;15.97;11.13;;;;;;;4.61;74.16;98372.41;5092164;28;20634;-90
2023/04/06 07:35:23;;;;;;;14.90;10.60;;;;;;;4.73;73.94;98371.03;5092064;28;20225;-90
2023/04/06 07:37:49;;;;;;;15.23;11.07;;;;;;;4.86;72.91;98366.97;5091916;28;20254;-87
2023/04/06 07:40:17;;;;;;;13.70;10.70;;;;;;;4.89;72.18;98362.44;5090649;28;20632;-77
2023/04/06 07:42:44;;;;;;;15.57;10.70;;;;;;;5.12;71.25;98366.72;5092366;28;20661;-86
2023/04/06 07:45:11;;;;;;;13.53;10.20;;;;;;;5.18;71.00;98367.28;5091181;28;20598;-86
2023/04/06 07:47:38;;;;;;;16.10;11.00;;;;;;;5.29;70.94;98362.41;5091368;28;20326;-87
2023/04/06 07:50:06;;;;;;;12.33;10.80;;;;;;;5.37;70.81;98365.53;5091032;28;20294;-87
2023/04/06 07:52:33;;;;;;;15.20;10.70;;;;;;;5.50;70.88;98361.44;5089722;28;20655;-88
2023/04/06 07:55:00;;;;;;;15.00;11.17;;;;;;;5.80;70.42;98359.22;5091314;28;20630;-89
2023/04/06 07:57:28;;;;;;;15.83;10.60;;;;;;;5.85;69.00;98352.84;5088999;28;20341;-90
2023/04/06 07:59:55;;;;;;;14.43;11.40;;;;;;;5.96;68.31;98355.81;5088806;28;20235;-89
2023/04/06 08:02:21;;;;;;;12.20;9.70;;;;;;;5.96;65.72;98340.06;5092528;28;20247;-89
2023/04/06 08:04:48;;;;;;;14.63;10.47;;;;;;;5.96;65.92;98340.06;5095383;28;20700;-89
2023/04/06 08:07:15;;;;;;;13.20;10.63;;;;;;;6.17;65.85;98352.13;5109357;22;20272;-90
2023/04/06 08:09:42;;;;;;;12.98;10.90;;;;;;;6.30;65.15;98340.13;4987549;28;20429;-90
2023/04/06 08:12:08;;;;;;;12.80;10.37;;;;;;;6.40;63.80;98338.75;4989188;28;20261;-82
2023/04/06 08:14:36;;;;;;;14.57;10.53;;;;;;;6.43;64.34;98340.38;4989145;28;20263;-80
2023/04/06 08:17:03;;;;;;;13.80;10.50;;;;;;;6.71;65.50;98344.19;4988984;28;20256;-85
2023/04/06 08:19:30;;;;;;;14.97;10.93;;;;;;;6.87;63.35;98331.09;4969084;28;20303;-82
2023/04/06 08:21:56;;;;;;;14.10;10.70;;;;;;;6.82;62.47;98333.97;4969427;28;20249;-80
2023/04/06 08:24:23;;;;;;;13.47;9.50;;;;;;;6.90;62.05;98320.47;4969960;28;20211;-91
2023/04/06 08:26:50;;;;;;;13.00;10.13;;;;;;;6.95;61.08;98329.78;4972555;28;20215;-92
2023/04/06 08:29:19;;;;;;;13.03;9.90;;;;;;;7.22;61.50;98328.38;4970464;28;20228;-92
2023/04/06 08:31:47;;;;;;;12.10;9.80;;;;;;;7.40;60.53;98327.38;4971200;28;20231;-92
2023/04/06 08:34:14;;;;;;;16.23;10.63;;;;;;;7.59;59.49;98313.16;4971207;28;20763;-91
2023/04/06 08:36:40;;;;;;;11.90;9.47;;;;;;;7.59;59.02;98312.31;4973648;28;20216;-91
2023/04/06 08:39:07;;;;;;;13.30;9.80;;;;;;;7.76;59.21;98314.84;4974329;28;20223;-92
2023/04/06 08:41:36;;;;;;;15.17;10.33;;;;;;;8.03;58.45;98313.34;4978137;28;20216;-91
2023/04/06 08:44:04;;;;;;;11.23;8.93;;;;;;;8.10;56.64;98293.63;4984507;28;20279;-90
2023/04/06 08:46:32;;;;;;;13.27;10.00;;;;;;;8.31;58.18;98313.47;4973813;28;20229;-91
2023/04/06 08:49:01;;;;;;;12.03;9.50;;;;;;;8.54;57.08;98299.84;4973628;28;20272;-90
2023/04/06 08:51:30;;;;;;;10.30;8.63;;;;;;;8.72;55.47;98288.22;4972900;28;20774;-91
2023/04/06 08:53:58;;;;;;;11.23;8.97;;;;;;;8.79;53.92;98271.97;4973618;28;20328;-92
2023/04/06 08:56:27;;;;;;;11.90;8.83;;;;;;;8.80;54.20;98280.69;4973180;28;20753;-91
2023/04/06 08:58:55;;;;;;;11.80;8.53;;;;;;;8.71;52.25;98255.78;4973115;28;20696;-91
2023/04/06 09:01:26;;;;;;;11.27;8.47;;;;;;;8.62;51.64;98247.56;4972823;28;20207;-92
2023/04/06 09:03:57;;;;;;;12.63;8.70;;;;;;;8.89;54.43;98280.16;4974112;28;20638;-92
2023/04/06 09:06:27;;;;;;;11.50;8.27;;;;;;;9.12;53.15;98271.72;4974339;28;20211;-90
2023/04/06 09:08:54;;;;;;;11.00;8.37;;;;;;;9.18;51.64;98250.25;4973426;28;20748;-88
2023/04/06 09:11:21;;;;;;;12.63;8.07;;;;;;;9.25;51.13;98241.00;4972014;28;20562;-81
2023/04/06 09:13:49;;;;;;;11.03;8.10;;;;;;;9.30;50.48;98241.56;4972486;28;20306;-83
2023/04/06 09:16:16;;;;;;;10.40;8.37;;;;;;;9.40;50.39;98245.31;4972062;28;20234;-83
2023/04/06 09:18:43;;;;;;;14.17;9.27;;;;;;;9.59;51.25;98251.13;4972431;28;20670;-85
2023/04/06 09:21:11;;;;;;;9.27;8.17;;;;;;;9.58;49.01;98230.97;4971720;28;20207;-80
2023/04/06 09:23:39;;;;;;;9.80;8.17;;;;;;;9.68;49.47;98232.09;4973771;28;20215;-83
2023/04/06 09:26:10;;;;;;;11.00;8.70;;;;;;;9.68;48.79;98226.81;4972229;28;20298;-82
2023/04/06 09:28:47;;;;;;;11.23;8.10;;;;;;;9.71;48.88;98232.72;4972303;28;20299;-88
2023/04/06 09:31:15;;;;;;;11.70;8.13;;;;;;;9.90;48.64;98235.03;4971463;28;20266;-89
2023/04/06 09:33:43;;;;;;;11.00;8.20;;;;;;;10.14;48.46;98238.72;4972567;28;20296;-81
2023/04/06 09:36:10;;;;;;;9.57;8.20;;;;;;;10.14;47.19;98212.31;4971386;28;20928;-82
2023/04/06 09:38:51;;;;;;;9.90;7.83;;;;;;;10.17;45.47;98206.84;4971975;28;20223;-84
2023/04/06 09:41:22;;;;;;;12.77;8.30;;;;;;;10.05;43.82;98183.91;4971380;28;20303;-82
2023/04/06 09:43:50;;;;;;;11.13;7.60;;;;;;;9.97;43.22;98183.53;4971828;28;20304;-79
2023/04/06 09:46:18;;;;;;;11.27;8.90;;;;;;;10.08;42.88;98173.97;4970713;28;20303;-82
2023/04/06 09:48:45;;;;;;;10.17;7.77;;;;;;;9.89;43.44;98180.53;4971604;28;20636;-82
2023/04/06 09:51:14;;;;;;;10.97;8.17;;;;;;;10.18;44.41;98197.97;4971057;28;20685;-80
2023/04/06 09:53:45;;;;;;;11.87;8.00;;;;;;;10.19;43.25;98167.97;4971509;28;20222;-81
2023/04/06 09:56:18;;;;;;;10.73;8.47;;;;;;;10.29;44.54;98196.28;4971807;28;20211;-81
2023/04/06 09:58:50;;;;;;;11.53;8.43;;;;;;;10.26;44.30;98201.81;4971491;28;20228;-80
2023/04/06 10:01:23;;;;;;;12.57;8.07;;;;;;;10.17;43.60;98191.00;4970819;28;20752;-80
2023/04/06 10:03:56;;;;;;;10.43;7.97;;;;;;;10.25;43.75;98186.03;4971386;28;20595;-82
2023/04/06 10:06:27;;;;;;;11.27;7.67;;;;;;;10.21;43.02;98179.28;4971468;28;20215;-81
2023/04/06 10:08:58;;;;;;;12.25;8.32;;;;;;;10.31;42.91;98177.72;4971169;28;20595;-87
2023/04/06 10:11:25;;;;;;;12.43;8.27;;;;;;;10.52;43.04;98182.38;4971363;28;20238;-79
2023/04/06 10:13:52;;;;;;;10.07;7.73;;;;;;;10.68;42.14;98176.91;4972085;28;20548;-85
2023/04/06 10:16:19;;;;;;;10.37;8.33;;;;;;;11.05;41.07;98166.31;4972831;28;20298;-82
2023/04/06 10:18:51;;;;;;;12.53;9.30;;;;;;;11.14;42.41;98185.97;4971318;28;20735;-82
2023/04/06 10:21:24;;;;;;;10.63;8.10;;;;;;;11.22;42.74;98183.63;4970904;28;20206;-86
2023/04/06 10:23:58;;;;;;;11.27;8.97;;;;;;;11.32;42.70;98187.31;4971465;28;20217;-88
2023/04/06 10:26:26;;;;;;;10.27;7.93;;;;;;;11.25;41.43;98159.63;4971550;28;20275;-88
2023/04/06 10:28:54;;;;;;;11.10;7.43;;;;;;;11.27;41.24;98155.03;4971243;28;20223;-88
2023/04/06 10:31:26;;;;;;;9.70;7.33;;;;;;;11.16;40.11;98142.59;4970730;28;20215;-88
2023/04/06 10:33:56;;;;;;;11.50;8.57;;;;;;;11.29;41.20;98161.06;4971391;28;20216;-88
2023/04/06 10:36:25;;;;;;;12.97;8.07;;;;;;;11.48;40.71;98156.13;4971475;28;20225;-88
2023/04/06 10:38:55;;;;;;;11.07;8.40;;;;;;;11.70;41.64;98172.19;4970995;28;20230;-88
2023/04/06 10:41:22;;;;;;;11.10;8.47;;;;;;;11.67;40.91;98156.56;4970469;28;20672;-88
2023/04/06 10:43:57;;;;;;;12.33;8.60;;;;;;;11.96;39.66;98149.94;4971256;28;20568;-88
2023/04/06 10:46:26;;;;;;;9.73;7.70;;;;;;;11.89;39.70;98144.25;4971292;28;20676;-88
2023/04/06 10:48:52;;;;;;;11.17;8.30;;;;;;;11.80;38.48;98122.91;4970962;28;20227;-88
2023/04/06 10:51:24;;;;;;;11.90;8.67;;;;;;;11.96;40.31;98157.88;4970297;28;20297;-88
2023/04/06 10:53:53;;;;;;;10.53;7.97;;;;;;;11.88;38.81;98133.78;4971005;28;20294;-87
2023/04/06 10:56:23;;;;;;;9.83;8.40;;;;;;;11.96;40.54;98155.22;4970924;28;20309;-87
2023/04/06 10:58:55;;;;;;;12.30;8.40;;;;;;;12.10;39.83;98147.94;4970684;28;20227;-87
2023/04/06 11:01:23;;;;;;;9.57;8.13;;;;;;;12.17;40.01;98149.16;4970343;28;20211;-87
2023/04/06 11:03:51;;;;;;;9.50;8.17;;;;;;;11.98;37.36;98106.47;4971090;28;20207;-87
2023/04/06 11:06:23;;;;;;;10.10;7.90;;;;;;;11.88;37.01;98108.16;4970866;28;20605;-87
2023/04/06 11:08:50;;;;;;;8.77;7.43;;;;;;;11.85;37.68;98115.44;4970531;28;20326;-84
2023/04/06 11:11:18;;;;;;;9.33;7.47;;;;;;;11.85;38.35;98121.59;4971107;28;20242;-88
2023/04/06 11:13:47;;;;;;;11.70;7.77;;;;;;;11.82;37.22;98111.25;4971033;28;20214;-87
2023/04/06 11:16:16;;;;;;;10.17;7.97;;;;;;;11.86;37.91;98111.88;4970810;28;20259;-82
2023/04/06 11:18:54;;;;;;;9.17;7.10;;;;;;;11.79;37.32;98094.75;4970668;28;20273;-86
2023/04/06 11:21:32;;;;;;;10.37;8.13;;;;;;;11.84;36.38;98087.28;4969989;28;20210;-86
2023/04/06 11:24:05;;;;;;;9.97;7.57;;;;;;;11.74;37.22;98089.78;4970342;28;20213;-86